createdAt,value
2023-02-09T00:01:50.880Z,88.69
2023-02-09T00:04:19.030Z,89.27
2023-02-09T00:06:47.221Z,89.13
2023-02-09T00:09:15.768Z,88.78
2023-02-09T00:12:04.814Z,87.05
2023-02-09T00:14:34.669Z,84.58
2023-02-09T00:17:03.511Z,84.47
2023-02-09T00:19:33.417Z,83.98
2023-02-09T00:22:02.217Z,83.97
2023-02-09T00:24:34.045Z,83.77
2023-02-09T00:27:06.354Z,83.52
2023-02-09T00:29:34.915Z,83.24
2023-02-09T00:32:03.322Z,82.62
2023-02-09T00:34:31.487Z,83.05
2023-02-09T00:36:59.876Z,83.17
2023-02-09T00:39:28.080Z,82.41
2023-02-09T00:42:08.543Z,83.13
2023-02-09T00:44:40.660Z,83.71
2023-02-09T00:47:10.221Z,84.69
2023-02-09T00:49:40.117Z,84.95
2023-02-09T00:52:09.925Z,83.36
2023-02-09T00:54:38.398Z,83.61
2023-02-09T00:57:06.545Z,84.86
2023-02-09T00:59:35.758Z,84.68
2023-02-09T01:02:05.375Z,84.43
2023-02-09T01:04:33.993Z,85.20
2023-02-09T01:07:02.371Z,85.25
2023-02-09T01:09:30.695Z,85.69
2023-02-09T01:11:58.803Z,86.76
2023-02-09T01:14:26.907Z,87.95
2023-02-09T01:16:55.115Z,87.44
2023-02-09T01:19:24.693Z,87.55
2023-02-09T01:21:52.739Z,88.07
2023-02-09T01:24:20.801Z,86.83
2023-02-09T01:26:48.858Z,86.11
2023-02-09T01:29:19.494Z,86.60
2023-02-09T01:31:48.075Z,87.39
2023-02-09T01:34:18.751Z,86.17
2023-02-09T01:36:48.488Z,86.22
2023-02-09T01:39:16.882Z,87.96
2023-02-09T01:41:45.158Z,87.49
2023-02-09T01:44:55.495Z,87.82
2023-02-09T01:47:23.756Z,88.27
2023-02-09T01:49:52.428Z,88.36
2023-02-09T01:52:26.765Z,88.02
2023-02-09T01:54:58.131Z,88.06
2023-02-09T01:57:30.920Z,88.16
2023-02-09T02:00:02.766Z,89.05
2023-02-09T02:02:31.501Z,89.37
2023-02-09T02:05:00.106Z,88.59
2023-02-09T02:07:34.910Z,88.51
2023-02-09T02:10:04.039Z,89.38
2023-02-09T02:12:33.955Z,88.83
2023-02-09T02:15:02.068Z,88.34
2023-02-09T02:17:43.967Z,88.85
2023-02-09T02:20:46.816Z,89.38
2023-02-09T02:23:26.545Z,88.26
2023-02-09T02:26:26.094Z,88.51
2023-02-09T02:29:15.061Z,88.76
2023-02-09T02:32:03.958Z,89.59
2023-02-09T02:34:42.967Z,88.64
2023-02-09T02:37:20.495Z,88.24
2023-02-09T02:39:58.848Z,88.51
2023-02-09T02:42:52.900Z,88.15
2023-02-09T02:45:35.422Z,87.08
2023-02-09T02:48:15.242Z,86.88
2023-02-09T02:50:49.097Z,87.06
2023-02-09T02:53:19.497Z,87.07
2023-02-09T02:55:50.508Z,88.11
2023-02-09T02:58:22.307Z,88.94
2023-02-09T03:00:53.384Z,88.71
2023-02-09T03:03:25.547Z,87.63
2023-02-09T03:05:54.831Z,87.52
2023-02-09T03:08:22.972Z,87.83
2023-02-09T03:10:51.288Z,87.17
2023-02-09T03:13:40.129Z,87.47
2023-02-09T03:16:19.754Z,87.60
2023-02-09T03:19:05.207Z,87.40
2023-02-09T03:21:42.915Z,87.76
2023-02-09T03:24:17.027Z,87.87
2023-02-09T03:26:50.958Z,88.96
2023-02-09T03:29:21.190Z,89.81
2023-02-09T03:31:50.257Z,90.15
2023-02-09T03:34:20.067Z,90.89
2023-02-09T03:36:52.681Z,91.10
2023-02-09T03:39:20.994Z,91.71
2023-02-09T03:41:49.194Z,91.96
2023-02-09T03:44:29.297Z,91.42
2023-02-09T03:46:59.662Z,91.54
2023-02-09T03:49:31.781Z,91.88
2023-02-09T03:52:00.848Z,91.37
2023-02-09T03:54:29.336Z,91.03
2023-02-09T03:56:57.805Z,90.30
2023-02-09T03:59:26.956Z,88.91
2023-02-09T04:01:56.108Z,89.36
2023-02-09T04:04:24.892Z,89.88
2023-02-09T04:06:56.218Z,89.97
2023-02-09T04:09:24.809Z,90.53
2023-02-09T04:11:52.979Z,91.09
2023-02-09T04:14:21.099Z,91.06
2023-02-09T04:16:49.263Z,91.78
2023-02-09T04:19:17.483Z,92.38
2023-02-09T04:21:45.632Z,92.05
2023-02-09T04:24:15.194Z,92.30
2023-02-09T04:26:43.313Z,92.28
2023-02-09T04:29:11.483Z,92.74
2023-02-09T04:31:39.608Z,92.59
2023-02-09T04:34:07.731Z,93.41
2023-02-09T04:36:35.915Z,93.73
2023-02-09T04:39:04.194Z,93.24
2023-02-09T04:41:33.746Z,93.61
2023-02-09T04:44:01.817Z,93.79
2023-02-09T04:46:29.947Z,94.32
2023-02-09T04:48:58.065Z,94.87
2023-02-09T04:51:26.217Z,93.15
2023-02-09T04:53:54.423Z,92.56
2023-02-09T04:56:22.533Z,93.25
2023-02-09T04:59:09.725Z,93.67
2023-02-09T05:01:37.858Z,92.47
2023-02-09T05:04:06.177Z,93.18
2023-02-09T05:06:34.298Z,92.56
2023-02-09T05:09:02.407Z,93.77
2023-02-09T05:11:30.539Z,93.38
2023-02-09T05:14:00.122Z,93.31
2023-02-09T05:16:28.257Z,94.77
2023-02-09T05:18:56.415Z,95.32
2023-02-09T05:21:24.618Z,96.69
2023-02-09T05:23:52.766Z,98.25
2023-02-09T05:26:20.848Z,99.33
2023-02-09T05:28:49.009Z,99.30
2023-02-09T05:31:19.177Z,99.80
2023-02-09T05:33:47.449Z,99.45
2023-02-09T05:36:15.573Z,98.49
2023-02-09T05:38:43.788Z,98.60
2023-02-09T05:41:35.391Z,97.83
2023-02-09T05:44:03.619Z,97.09
2023-02-09T05:46:33.304Z,96.59
2023-02-09T05:49:01.346Z,96.97
2023-02-09T05:51:29.440Z,97.11
2023-02-09T05:53:57.542Z,97.13
2023-02-09T05:56:25.631Z,95.98
2023-02-09T05:58:53.732Z,94.94
2023-02-09T06:01:21.806Z,95.33
2023-02-09T06:03:51.417Z,96.06
2023-02-09T06:06:19.598Z,97.32
2023-02-09T06:08:47.738Z,98.37
2023-02-09T06:11:15.859Z,98.22
2023-02-09T06:13:43.958Z,98.75
2023-02-09T06:16:12.467Z,98.59
2023-02-09T06:18:40.581Z,97.77
2023-02-09T06:21:11.763Z,97.33
2023-02-09T06:23:40.024Z,98.16
2023-02-09T06:26:09.324Z,98.82
2023-02-09T06:28:37.811Z,100.00
2023-02-09T06:31:06.685Z,100.00
2023-02-09T06:33:35.990Z,100.00
2023-02-09T06:36:05.161Z,100.00
2023-02-09T06:38:35.964Z,100.00
2023-02-09T06:41:04.550Z,99.18
2023-02-09T06:43:32.813Z,98.71
2023-02-09T06:46:05.825Z,98.55
2023-02-09T06:48:34.167Z,99.42
2023-02-09T06:51:02.570Z,99.34
2023-02-09T06:53:30.782Z,99.38
2023-02-09T06:56:02.937Z,100.00
2023-02-09T06:58:33.287Z,100.00
2023-02-09T07:01:04.093Z,99.68
2023-02-09T07:03:32.318Z,98.99
2023-02-09T07:06:04.843Z,98.08
2023-02-09T07:08:33.007Z,97.36
2023-02-09T07:11:05.062Z,97.90
2023-02-09T07:13:33.892Z,97.25
2023-02-09T07:16:03.965Z,96.03
2023-02-09T07:18:32.699Z,95.09
2023-02-09T07:21:03.124Z,94.49
2023-02-09T07:23:31.849Z,94.32
2023-02-09T07:26:05.329Z,93.37
2023-02-09T07:28:33.874Z,92.47
2023-02-09T07:31:07.085Z,91.67
2023-02-09T07:33:35.813Z,90.99
2023-02-09T07:36:05.502Z,90.74
2023-02-09T07:38:34.204Z,90.17
2023-02-09T07:41:05.591Z,88.42
2023-02-09T07:43:34.573Z,88.59
2023-02-09T07:46:03.826Z,87.89
2023-02-09T07:48:32.543Z,87.44
2023-02-09T07:51:01.119Z,86.63
2023-02-09T07:53:29.996Z,86.09
2023-02-09T07:55:58.564Z,85.64
2023-02-09T07:58:28.239Z,84.74
2023-02-09T08:00:57.443Z,84.20
2023-02-09T08:03:26.866Z,83.40
2023-02-09T08:06:02.332Z,84.03
2023-02-09T08:08:30.615Z,84.86
2023-02-09T08:10:59.994Z,83.30
2023-02-09T08:13:35.061Z,83.22
2023-02-09T08:16:05.950Z,83.73
2023-02-09T08:18:37.702Z,82.51
2023-02-09T08:21:07.700Z,82.48
2023-02-09T08:23:39.501Z,82.12
2023-02-09T08:26:11.052Z,80.60
2023-02-09T08:28:45.102Z,80.15
2023-02-09T08:31:14.179Z,79.29
2023-02-09T08:33:42.639Z,78.92
2023-02-09T08:36:11.686Z,78.76
2023-02-09T08:38:40.033Z,79.25
2023-02-09T08:41:10.423Z,78.48
2023-02-09T08:43:38.661Z,77.95
2023-02-09T08:46:10.319Z,77.31
2023-02-09T08:48:40.337Z,77.07
2023-02-09T08:51:09.510Z,76.85
2023-02-09T08:53:38.114Z,76.30
2023-02-09T08:56:06.739Z,76.27
2023-02-09T08:58:35.070Z,76.19
2023-02-09T09:01:03.631Z,75.74
2023-02-09T09:03:33.682Z,74.91
2023-02-09T09:06:03.504Z,74.54
2023-02-09T09:08:32.579Z,74.51
2023-02-09T09:11:00.783Z,74.30
2023-02-09T09:13:29.147Z,75.16
2023-02-09T09:15:57.430Z,74.43
2023-02-09T09:18:27.192Z,73.62
2023-02-09T09:20:57.564Z,72.81
2023-02-09T09:23:25.844Z,71.79
2023-02-09T09:25:54.003Z,71.89
2023-02-09T09:28:22.497Z,71.62
2023-02-09T09:30:50.706Z,70.87
2023-02-09T09:33:18.980Z,71.42
2023-02-09T09:35:47.464Z,71.40
2023-02-09T09:38:17.211Z,69.88
2023-02-09T09:40:47.314Z,67.90
2023-02-09T09:43:24.100Z,67.80
2023-02-09T09:45:52.369Z,66.74
2023-02-09T09:48:25.598Z,65.64
2023-02-09T09:50:57.585Z,64.64
2023-02-09T09:53:33.331Z,64.37
2023-02-09T09:56:06.521Z,62.44
2023-02-09T09:58:36.152Z,62.36
2023-02-09T10:01:04.431Z,61.06
2023-02-09T10:03:32.767Z,60.74
2023-02-09T10:06:11.072Z,60.04
2023-02-09T10:08:46.419Z,59.67
2023-02-09T10:11:16.173Z,59.59
2023-02-09T10:13:46.074Z,56.26
2023-02-09T10:16:18.146Z,55.43
2023-02-09T10:18:46.385Z,55.65
2023-02-09T10:21:17.386Z,53.50
2023-02-09T10:23:49.391Z,53.81
2023-02-09T10:26:25.760Z,52.53
2023-02-09T10:28:55.897Z,52.12
2023-02-09T10:31:27.463Z,52.48
2023-02-09T10:33:59.440Z,52.38
2023-02-09T10:36:32.050Z,52.67
2023-02-09T10:39:16.975Z,52.21
2023-02-09T10:41:47.596Z,51.72
2023-02-09T10:44:23.035Z,52.16
2023-02-09T10:47:09.049Z,50.60
2023-02-09T10:49:39.953Z,53.72
2023-02-09T10:52:16.057Z,51.98
2023-02-09T10:54:49.886Z,50.75
2023-02-09T10:57:27.884Z,51.88
2023-02-09T10:59:58.056Z,52.66
2023-02-09T11:02:37.767Z,50.03
2023-02-09T11:05:30.025Z,49.93
2023-02-09T11:08:04.459Z,50.40
2023-02-09T11:10:37.915Z,51.25
2023-02-09T11:13:18.798Z,50.36
2023-02-09T11:15:58.419Z,50.23
2023-02-09T11:18:30.137Z,51.45
2023-02-09T11:21:05.952Z,50.65
2023-02-09T11:23:49.477Z,51.01
2023-02-09T11:26:35.014Z,49.29
2023-02-09T11:29:10.751Z,47.09
2023-02-09T11:31:51.881Z,48.58
2023-02-09T11:34:41.116Z,49.06
2023-02-09T11:37:24.570Z,49.41
2023-02-09T11:40:00.442Z,50.38
2023-02-09T11:42:45.930Z,50.21
2023-02-09T11:45:20.766Z,49.44
2023-02-09T11:48:03.878Z,46.59
2023-02-09T11:50:37.284Z,49.14
2023-02-09T11:53:13.356Z,49.04
2023-02-09T11:55:48.074Z,48.40
2023-02-09T11:58:30.770Z,48.35
2023-02-09T12:01:14.964Z,49.16
2023-02-09T12:03:54.963Z,48.95
2023-02-09T12:06:25.218Z,48.03
2023-02-09T12:09:08.896Z,46.58
2023-02-09T12:11:50.694Z,46.31
2023-02-09T12:14:39.857Z,45.85
2023-02-09T12:17:14.613Z,45.76
2023-02-09T12:19:46.482Z,45.21
2023-02-09T12:22:46.856Z,45.68
2023-02-09T12:25:21.439Z,44.33
2023-02-09T12:28:18.265Z,45.24
2023-02-09T12:31:10.131Z,46.14
2023-02-09T12:33:40.419Z,43.92
2023-02-09T12:36:30.750Z,43.32
2023-02-09T12:39:06.204Z,44.31
2023-02-09T12:42:12.892Z,45.32
2023-02-09T12:44:55.452Z,44.67
2023-02-09T12:48:00.304Z,43.86
2023-02-09T12:50:49.189Z,43.91
2023-02-09T12:53:45.760Z,43.87
2023-02-09T12:56:34.615Z,44.03
2023-02-09T12:59:17.917Z,44.46
2023-02-09T13:02:16.029Z,43.44
2023-02-09T13:04:57.021Z,43.34
2023-02-09T13:07:41.245Z,42.55
2023-02-09T13:10:21.905Z,43.03
2023-02-09T13:12:56.140Z,41.59
2023-02-09T13:15:28.402Z,43.49
2023-02-09T13:18:07.549Z,41.80
2023-02-09T13:20:56.981Z,42.73
2023-02-09T13:23:34.960Z,41.93
2023-02-09T13:26:21.530Z,42.02
2023-02-09T13:28:49.919Z,43.46
2023-02-09T13:31:27.228Z,42.40
2023-02-09T13:34:02.911Z,42.96
2023-02-09T13:36:42.625Z,40.89
2023-02-09T13:39:24.807Z,40.71
2023-02-09T13:41:54.853Z,40.71
2023-02-09T13:44:25.346Z,39.73
2023-02-09T13:46:56.036Z,39.43
2023-02-09T13:49:25.242Z,38.95
2023-02-09T13:52:14.738Z,37.30
2023-02-09T13:54:43.903Z,35.91
2023-02-09T13:57:18.499Z,33.03
2023-02-09T13:59:46.793Z,30.89
2023-02-09T14:02:21.311Z,31.13
2023-02-09T14:04:53.264Z,31.19
2023-02-09T14:07:26.845Z,30.23
2023-02-09T14:09:59.410Z,28.27
2023-02-09T14:12:55.790Z,26.84
2023-02-09T14:15:59.884Z,26.01
2023-02-09T14:18:34.092Z,25.66
2023-02-09T14:21:29.888Z,24.82
2023-02-09T14:24:26.819Z,25.70
2023-02-09T14:26:59.443Z,26.01
2023-02-09T14:29:29.411Z,26.13
2023-02-09T14:31:59.576Z,25.46
2023-02-09T14:34:34.210Z,27.47
2023-02-09T14:37:04.646Z,30.02
2023-02-09T14:39:34.180Z,32.46
2023-02-09T14:42:17.838Z,34.66
2023-02-09T14:44:55.080Z,37.00
2023-02-09T14:47:30.870Z,37.56
2023-02-09T14:49:59.718Z,39.37
2023-02-09T14:52:29.857Z,40.15
2023-02-09T14:55:01.556Z,41.96
2023-02-09T14:57:32.129Z,43.15
2023-02-09T15:00:00.382Z,43.26
2023-02-09T15:02:29.418Z,44.26
2023-02-09T15:04:57.680Z,45.02
2023-02-09T15:07:32.431Z,45.61
2023-02-09T15:10:02.466Z,46.06
2023-02-09T15:12:30.908Z,46.67
2023-02-09T15:15:01.211Z,46.27
2023-02-09T15:17:31.605Z,47.53
2023-02-09T15:19:59.933Z,47.01
2023-02-09T15:22:28.202Z,47.41
2023-02-09T15:24:56.271Z,50.09
2023-02-09T15:27:33.313Z,50.40
2023-02-09T15:30:04.327Z,52.40
2023-02-09T15:32:32.979Z,53.67
2023-02-09T15:35:01.324Z,54.47
2023-02-09T15:37:33.975Z,55.58
2023-02-09T15:40:14.948Z,57.44
2023-02-09T15:43:01.954Z,55.31
2023-02-09T15:45:49.173Z,52.76
2023-02-09T15:48:17.308Z,52.38
2023-02-09T15:50:50.760Z,52.47
2023-02-09T15:53:21.459Z,52.66
2023-02-09T15:55:50.092Z,52.53
2023-02-09T15:58:35.425Z,52.17
2023-02-09T16:01:03.850Z,52.59
2023-02-09T16:03:33.015Z,53.30
2023-02-09T16:06:04.593Z,53.60
2023-02-09T16:08:34.532Z,57.15
2023-02-09T16:11:09.534Z,60.39
2023-02-09T16:13:39.445Z,59.92
2023-02-09T16:16:16.744Z,59.42
2023-02-09T16:18:45.946Z,60.50
2023-02-09T16:21:21.285Z,60.86
2023-02-09T16:23:49.787Z,60.48
2023-02-09T16:26:19.396Z,62.00
2023-02-09T16:28:49.588Z,64.09
2023-02-09T16:31:17.859Z,64.31
2023-02-09T16:33:46.614Z,63.04
2023-02-09T16:36:17.642Z,60.26
2023-02-09T16:38:46.719Z,58.20
2023-02-09T16:41:31.192Z,58.26
2023-02-09T16:44:00.981Z,58.96
2023-02-09T16:46:32.067Z,58.79
2023-02-09T16:49:02.852Z,63.94
2023-02-09T16:51:31.124Z,66.01
2023-02-09T16:53:59.467Z,65.92
2023-02-09T16:56:28.066Z,64.70
2023-02-09T16:58:56.466Z,63.23
2023-02-09T17:01:26.171Z,65.97
2023-02-09T17:03:57.658Z,66.67
2023-02-09T17:06:29.749Z,66.29
2023-02-09T17:08:58.848Z,66.33
2023-02-09T17:11:28.992Z,66.10
2023-02-09T17:13:57.181Z,66.10
2023-02-09T17:16:36.312Z,65.90
2023-02-09T17:19:06.584Z,64.83
2023-02-09T17:21:36.350Z,64.30
2023-02-09T17:24:05.687Z,65.18
2023-02-09T17:26:34.049Z,64.54
2023-02-09T17:29:02.370Z,64.57
2023-02-09T17:31:47.078Z,63.75
2023-02-09T17:34:20.806Z,63.89
2023-02-09T17:36:49.225Z,64.32
2023-02-09T17:39:19.117Z,64.15
2023-02-09T17:41:50.175Z,63.93
2023-02-09T17:44:31.901Z,64.87
2023-02-09T17:47:11.110Z,66.85
2023-02-09T17:49:39.423Z,65.86
2023-02-09T17:52:07.622Z,65.29
2023-02-09T17:54:35.882Z,65.83
2023-02-09T17:57:04.297Z,67.40
2023-02-09T17:59:32.511Z,66.48
2023-02-09T18:02:00.799Z,65.66
2023-02-09T18:04:31.868Z,65.56
2023-02-09T18:07:00.157Z,66.44
2023-02-09T18:09:28.462Z,65.95
2023-02-09T18:12:00.003Z,68.98
2023-02-09T18:14:29.380Z,69.84
2023-02-09T18:16:57.806Z,68.67
2023-02-09T18:19:26.294Z,69.26
2023-02-09T18:21:58.391Z,68.08
2023-02-09T18:24:28.543Z,66.76
2023-02-09T18:26:56.871Z,65.71
2023-02-09T18:29:29.360Z,67.67
2023-02-09T18:31:58.319Z,67.73
2023-02-09T18:34:26.616Z,68.56
2023-02-09T18:36:56.591Z,72.02
2023-02-09T18:39:25.296Z,72.44
2023-02-09T18:41:55.321Z,70.80
2023-02-09T18:44:29.129Z,69.98
2023-02-09T18:46:57.849Z,69.75
2023-02-09T18:49:26.229Z,70.67
2023-02-09T18:51:57.086Z,70.26
2023-02-09T18:54:27.700Z,69.43
2023-02-09T18:56:56.747Z,69.02
2023-02-09T18:59:29.312Z,68.91
2023-02-09T19:01:57.897Z,70.34
2023-02-09T19:04:26.224Z,70.59
2023-02-09T19:06:56.125Z,70.99
2023-02-09T19:09:24.348Z,71.53
2023-02-09T19:11:52.632Z,70.85
2023-02-09T19:14:38.984Z,70.06
2023-02-09T19:17:09.795Z,70.88
2023-02-09T19:19:38.884Z,70.88
2023-02-09T19:22:09.256Z,69.60
2023-02-09T19:24:37.562Z,69.66
2023-02-09T19:27:09.508Z,69.81
2023-02-09T19:29:41.292Z,71.39
2023-02-09T19:32:09.881Z,72.21
2023-02-09T19:34:41.098Z,71.34
2023-02-09T19:37:13.646Z,71.14
2023-02-09T19:39:41.963Z,70.97
2023-02-09T19:42:10.236Z,71.15
2023-02-09T19:44:38.533Z,72.30
2023-02-09T19:47:07.124Z,71.41
2023-02-09T19:49:35.432Z,71.33
2023-02-09T19:52:03.881Z,71.37
2023-02-09T19:54:33.949Z,71.12
2023-02-09T19:57:04.333Z,70.66
2023-02-09T19:59:32.749Z,71.10
2023-02-09T20:02:01.239Z,71.30
2023-02-09T20:04:29.581Z,71.11
2023-02-09T20:06:57.782Z,72.60
2023-02-09T20:09:26.031Z,72.31
2023-02-09T20:14:25.051Z,72.44
2023-02-09T20:16:54.338Z,71.43
2023-02-09T20:19:24.161Z,71.07
2023-02-09T20:21:52.511Z,70.89
2023-02-09T20:24:20.784Z,70.08
2023-02-09T20:26:49.175Z,70.51
2023-02-09T20:29:19.590Z,71.88
2023-02-09T20:31:47.790Z,70.83
2023-02-09T20:34:17.731Z,71.15
2023-02-09T20:36:48.201Z,71.28
2023-02-09T20:39:17.707Z,71.18
2023-02-09T20:42:06.764Z,71.28
2023-02-09T20:44:54.069Z,70.75
2023-02-09T20:47:22.473Z,70.76
2023-02-09T20:49:50.787Z,70.83
2023-02-09T20:52:19.321Z,71.67
2023-02-09T20:54:47.521Z,71.69
2023-02-09T20:57:15.738Z,71.56
2023-02-09T20:59:45.447Z,71.57
2023-02-09T21:02:15.225Z,71.17
2023-02-09T21:04:43.516Z,72.08
2023-02-09T21:07:11.696Z,72.24
2023-02-09T21:09:40.113Z,73.04
2023-02-09T21:12:08.402Z,72.89
2023-02-09T21:14:43.945Z,72.88
2023-02-09T21:17:14.173Z,74.31
2023-02-09T21:19:42.707Z,74.47
2023-02-09T21:22:11.105Z,74.01
2023-02-09T21:24:39.698Z,74.41
2023-02-09T21:27:08.313Z,73.67
2023-02-09T21:29:37.067Z,73.49
2023-02-09T21:32:07.372Z,73.24
2023-02-09T21:34:37.052Z,74.34
2023-02-09T21:37:07.960Z,74.74
2023-02-09T21:39:36.191Z,75.20
2023-02-09T21:42:21.869Z,74.11
2023-02-09T21:44:50.115Z,73.84
2023-02-09T21:47:18.286Z,73.35
2023-02-09T21:49:47.965Z,74.19
2023-02-09T21:52:16.154Z,74.05
2023-02-09T21:54:44.354Z,74.76
2023-02-09T21:57:12.864Z,74.94
2023-02-09T21:59:41.066Z,75.12
2023-02-09T22:02:09.708Z,74.82
2023-02-09T22:04:40.332Z,75.61
2023-02-09T22:07:10.476Z,75.72
2023-02-09T22:09:39.223Z,76.32
2023-02-09T22:12:07.945Z,75.80
2023-02-09T22:14:36.145Z,76.13
2023-02-09T22:17:04.712Z,76.35
2023-02-09T22:19:33.052Z,76.09
2023-02-09T22:22:01.689Z,75.97
2023-02-09T22:24:34.792Z,76.22
2023-02-09T22:27:03.308Z,76.12
2023-02-09T22:29:33.409Z,76.05
2023-02-09T22:32:01.719Z,76.71
2023-02-09T22:34:30.060Z,77.04
2023-02-09T22:36:58.269Z,77.28
2023-02-09T22:39:26.505Z,77.87
2023-02-09T22:41:59.472Z,77.71
2023-02-09T22:44:30.495Z,77.63
2023-02-09T22:46:58.805Z,78.00
2023-02-09T22:49:26.979Z,77.54
2023-02-09T22:51:55.279Z,78.17
2023-02-09T22:54:23.602Z,78.17
2023-02-09T22:56:52.172Z,77.67
2023-02-09T22:59:21.911Z,79.51
2023-02-09T23:01:50.058Z,78.69
2023-02-09T23:04:18.305Z,78.67
2023-02-09T23:06:46.987Z,79.09
2023-02-09T23:09:15.785Z,79.25
2023-02-09T23:11:44.418Z,79.89
2023-02-09T23:14:13.728Z,79.00
2023-02-09T23:16:45.582Z,79.22
2023-02-09T23:19:16.238Z,79.20
2023-02-09T23:21:46.123Z,78.38
2023-02-09T23:24:16.161Z,78.19
2023-02-09T23:26:44.800Z,78.82
2023-02-09T23:29:15.184Z,79.12
2023-02-09T23:31:46.152Z,78.96
2023-02-09T23:34:16.543Z,79.62
2023-02-09T23:36:44.797Z,78.12
2023-02-09T23:39:15.436Z,78.90
2023-02-09T23:41:43.856Z,80.17
2023-02-09T23:44:12.404Z,80.53
2023-02-09T23:46:40.779Z,80.35
2023-02-09T23:49:10.582Z,80.18
2023-02-09T23:51:39.156Z,81.06
2023-02-09T23:54:08.338Z,80.58
2023-02-09T23:56:38.189Z,81.73
2023-02-09T23:59:07.521Z,80.19
